Buoy 33880

sailwx.info

Track history (hours):
 
Tides and Currents Weather Stations Pressure Air Temp Water Temp Dewpoint Dewpoint Depression Visibility Wind Speed Wind Dir Waves Ship Positions

Drifting buoy 33880

Last reported at 2017-May-24 22:00 UTC. Time now 2017-May-24 23:44 UTC.
Position S 34°32' W 024°56'.

Date/timePositionNaut miles runAvg speedWind from/ knotsBaromVisibWave heightAir tempDewpointWater temp
2017-May-24 22:00S 34°32' W 024°56'0 0.5
2017-May-24 21:00S 34°32' W 024°56'0 0.2
2017-May-24 19:00S 34°32' W 024°56'0 0.5
2017-May-24 18:00S 34°32' W 024°56'1 0.6
2017-May-24 17:00S 34°32' W 024°56'0 0.0
2017-May-24 16:00S 34°32' W 024°56'0 0.0
2017-May-24 15:00S 34°32' W 024°56'0 0.0
2017-May-24 12:00S 34°32' W 024°56'0 0.5
2017-May-24 11:00S 34°32' W 024°57'0 0.0
2017-May-24 10:00S 34°32' W 024°57'0 0.0
2017-May-24 08:00S 34°32' W 024°57'1 0.4
2017-May-24 05:00S 34°32' W 024°56'2 0.4
2017-May-24 00:00S 34°34' W 024°55'1 0.6
2017-May-23 23:00S 34°35' W 024°55'0 0.0
2017-May-23 22:00S 34°35' W 024°55'1 0.2
2017-May-23 18:00S 34°35' W 024°54'0 0.5
2017-May-23 17:00S 34°35' W 024°53'0 0.0
2017-May-23 16:00S 34°35' W 024°53'3 0.5
2017-May-23 10:00S 34°36' W 024°50'1 0.6
2017-May-23 09:00S 34°37' W 024°50'1 1.0
2017-May-23 08:00S 34°37' W 024°49'0 0.0
2017-May-23 07:00S 34°37' W 024°49'1 1.0
2017-May-23 06:00S 34°37' W 024°47'1 0.4
2017-May-23 03:00S 34°38' W 024°47'0 0.0
2017-May-23 00:00S 34°38' W 024°47'0 0.5
2017-May-22 23:00S 34°38' W 024°46'1 0.8
2017-May-22 22:00S 34°38' W 024°46'1 0.6
2017-May-22 21:00S 34°39' W 024°46'1 0.6
2017-May-22 20:00S 34°38' W 024°46'2 0.8
2017-May-22 18:00S 34°39' W 024°44'0 0.0
2017-May-22 16:00S 34°39' W 024°44'2 0.5
2017-May-22 11:00S 34°41' W 024°42'1 0.6
2017-May-22 10:00S 34°41' W 024°42'1 0.6
2017-May-22 09:00S 34°42' W 024°42'1 0.8
2017-May-22 08:00S 34°43' W 024°41'1 0.1
2017-May-22 04:00S 34°43' W 024°41'2 1.9
2017-May-22 03:00S 34°44' W 024°40'1 0.2
2017-May-22 00:00S 34°45' W 024°40'0 0.0
2017-May-21 23:00S 34°45' W 024°40'1 0.8
2017-May-21 22:00S 34°46' W 024°39'0 0.0
2017-May-21 21:00S 34°46' W 024°39'1 0.8
2017-May-21 20:00S 34°46' W 024°40'0 0.5
2017-May-21 19:00S 34°46' W 024°39'1 1.0
2017-May-21 18:00S 34°46' W 024°38'0 0.0
2017-May-21 17:00S 34°46' W 024°38'0 0.0
2017-May-21 16:00S 34°46' W 024°38'3 0.7
2017-May-21 12:00S 34°49' W 024°36'3 3.1
2017-May-21 11:00S 34°51' W 024°34'0 0.0
2017-May-21 08:00S 34°51' W 024°34'0 0.0
2017-May-21 07:00S 34°51' W 024°34'2 0.5
2017-May-21 04:00S 34°52' W 024°32'1 0.2
2017-May-21 00:00S 34°52' W 024°31'1 0.8
2017-May-20 23:00S 34°53' W 024°31'2 2.3
2017-May-20 22:00S 34°55' W 024°29'0 0.0
2017-May-20 21:00S 34°55' W 024°29'1 0.8
2017-May-20 20:00S 34°54' W 024°29'2 1.9
2017-May-20 19:00S 34°55' W 024°28'1 0.8
2017-May-20 18:00S 34°55' W 024°27'1 0.6
2017-May-20 16:00S 34°56' W 024°26'3 0.7
2017-May-20 11:00S 34°58' W 024°23'2 1.6
2017-May-20 10:00S 34°59' W 024°22'2 1.6
2017-May-20 09:00S 34°59' W 024°20'0 0.0
2017-May-20 08:00S 34°59' W 024°20'1 1.3
2017-May-20 07:00S 35°01' W 024°19'6 6.1
2017-May-20 06:00S 35°04' W 024°13'0 0.0
2017-May-20 05:00S 35°04' W 024°13'0 0.0
2017-May-20 04:00S 35°04' W 024°13'0 0.0
2017-May-20 01:00S 35°04' W 024°13'0 0.0
2017-May-20 00:00S 35°04' W 024°13'0 0.0
2017-May-19 23:00S 35°04' W 024°13'2 0.7
2017-May-19 20:00S 35°06' W 024°12'2 2.3
2017-May-19 19:00S 35°07' W 024°10'1 0.6
2017-May-19 18:00S 35°08' W 024°10'7 6.5
2017-May-19 17:00S 35°13' W 024°04'0 0.0
2017-May-19 16:00S 35°13' W 024°04'1 0.2
2017-May-19 12:00S 35°13' W 024°04'0 0.0
2017-May-19 10:00S 35°13' W 024°04'1 1.3
2017-May-19 09:00S 35°14' W 024°03'2 0.9
2017-May-19 07:00S 35°16' W 024°01'2 0.8
2017-May-19 04:00S 35°17' W 023°59'0 0.0
2017-May-19 02:00S 35°17' W 023°59'3 1.5
2017-May-19 00:00S 35°19' W 023°56'1 0.8
2017-May-18 23:00S 35°20' W 023°56'0 0.5
2017-May-18 22:00S 35°20' W 023°55'5 1.7
2017-May-18 19:00S 35°25' W 023°53'0 0.0
2017-May-18 18:00S 35°25' W 023°53'0 0.0
2017-May-18 17:00S 35°25' W 023°53'3 0.5
2017-May-18 10:00S 35°28' W 023°51'1 0.6
2017-May-18 09:00S 35°28' W 023°51'0 0.0
2017-May-18 08:00S 35°28' W 023°51'2 0.5
2017-May-18 04:00S 35°30' W 023°50'0 0.0
2017-May-18 03:00S 35°30' W 023°50'2 1.2
2017-May-18 01:00S 35°32' W 023°49'0 0.0
2017-May-18 00:00S 35°32' W 023°49'0 0.0
2017-May-17 23:00S 35°32' W 023°49'1 1.3
2017-May-17 22:00S 35°34' W 023°49'2 1.8
2017-May-17 21:00S 35°35' W 023°49'0 0.2
2017-May-17 19:00S 35°35' W 023°49'1 1.1
2017-May-17 18:00S 35°36' W 023°48'1 0.8
2017-May-17 17:00S 35°37' W 023°49'3 1.5
2017-May-17 15:00S 35°39' W 023°51'1 0.2
2017-May-17 11:00S 35°40' W 023°50'1 1.2
2017-May-17 10:00S 35°41' W 023°50'0 0.0
2017-May-17 09:00S 35°41' W 023°50'0 0.0
2017-May-17 08:00S 35°41' W 023°50'1 1.3
2017-May-17 07:00S 35°42' W 023°50'0 0.0
2017-May-17 06:00S 35°42' W 023°50'3 2.6
2017-May-17 05:00S 35°44' W 023°51'0 0.0
2017-May-17 04:00S 35°44' W 023°51'0 0.0
2017-May-17 03:00S 35°44' W 023°51'0 0.0
2017-May-17 02:00S 35°44' W 023°51'3 1.3
2017-May-17 00:00S 35°47' W 023°52'1 0.6
2017-May-16 23:00S 35°47' W 023°52'2 2.3
2017-May-16 22:00S 35°49' W 023°54'0 0.0
2017-May-16 21:00S 35°49' W 023°54'1 0.8
2017-May-16 20:00S 35°50' W 023°55'0 0.0
2017-May-16 19:00S 35°50' W 023°55'1 0.8
2017-May-16 18:00S 35°50' W 023°55'2 1.9
2017-May-16 17:00S 35°52' W 023°56'0 0.2
2017-May-16 15:00S 35°52' W 023°55'3 0.9
2017-May-16 12:00S 35°55' W 023°57'1 0.8
2017-May-16 11:00S 35°55' W 023°58'1 0.4
2017-May-16 09:00S 35°56' W 023°58'1 0.6
2017-May-16 07:00S 35°57' W 023°58'3 1.6
2017-May-16 05:00S 36°00' W 023°59'2 0.5
2017-May-16 00:00S 36°02' W 024°00'1 0.8
2017-May-15 23:00S 36°03' W 024°01'2 1.5
2017-May-15 22:00S 36°04' W 024°02'1 1.0
2017-May-15 21:00S 36°04' W 024°03'0 0.2
2017-May-15 19:00S 36°04' W 024°04'2 1.0
2017-May-15 17:00S 36°04' W 024°06'0 0.0
2017-May-15 16:00S 36°04' W 024°06'4 0.8
2017-May-15 11:00S 36°03' W 024°11'1 1.2
2017-May-15 10:00S 36°02' W 024°11'1 1.1
2017-May-15 09:00S 36°02' W 024°12'2 1.0
2017-May-15 07:00S 36°01' W 024°13'2 1.1
2017-May-15 05:00S 35°59' W 024°16'2 0.6
2017-May-15 01:00S 35°58' W 024°18'0 0.0
2017-May-15 00:00S 35°58' W 024°18'  
Track history (hours):
 
Tides and Currents Weather Stations Pressure Air Temp Water Temp Dewpoint Dewpoint Depression Visibility Wind Speed Wind Dir Waves Ship Positions

Drifting buoy 33880

Last reported at 2017-May-24 22:00 UTC. Time now 2017-May-24 23:44 UTC.
Position S 34°32' W 024°56'.

Date/timePositionNaut miles runAvg speedWind from/ knotsBaromVisibWave heightAir tempDewpointWater temp
2017-May-24 22:00S 34°32' W 024°56'0 0.5
2017-May-24 21:00S 34°32' W 024°56'0 0.2
2017-May-24 19:00S 34°32' W 024°56'0 0.5
2017-May-24 18:00S 34°32' W 024°56'1 0.6
2017-May-24 17:00S 34°32' W 024°56'0 0.0
2017-May-24 16:00S 34°32' W 024°56'0 0.0
2017-May-24 15:00S 34°32' W 024°56'0 0.0
2017-May-24 12:00S 34°32' W 024°56'0 0.5
2017-May-24 11:00S 34°32' W 024°57'0 0.0
2017-May-24 10:00S 34°32' W 024°57'0 0.0
2017-May-24 08:00S 34°32' W 024°57'1 0.4
2017-May-24 05:00S 34°32' W 024°56'2 0.4
2017-May-24 00:00S 34°34' W 024°55'1 0.6
2017-May-23 23:00S 34°35' W 024°55'0 0.0
2017-May-23 22:00S 34°35' W 024°55'1 0.2
2017-May-23 18:00S 34°35' W 024°54'0 0.5
2017-May-23 17:00S 34°35' W 024°53'0 0.0
2017-May-23 16:00S 34°35' W 024°53'3 0.5
2017-May-23 10:00S 34°36' W 024°50'1 0.6
2017-May-23 09:00S 34°37' W 024°50'1 1.0
2017-May-23 08:00S 34°37' W 024°49'0 0.0
2017-May-23 07:00S 34°37' W 024°49'1 1.0
2017-May-23 06:00S 34°37' W 024°47'1 0.4
2017-May-23 03:00S 34°38' W 024°47'0 0.0
2017-May-23 00:00S 34°38' W 024°47'0 0.5
2017-May-22 23:00S 34°38' W 024°46'1 0.8
2017-May-22 22:00S 34°38' W 024°46'1 0.6
2017-May-22 21:00S 34°39' W 024°46'1 0.6
2017-May-22 20:00S 34°38' W 024°46'2 0.8
2017-May-22 18:00S 34°39' W 024°44'0 0.0
2017-May-22 16:00S 34°39' W 024°44'2 0.5
2017-May-22 11:00S 34°41' W 024°42'1 0.6
2017-May-22 10:00S 34°41' W 024°42'1 0.6
2017-May-22 09:00S 34°42' W 024°42'1 0.8
2017-May-22 08:00S 34°43' W 024°41'1 0.1
2017-May-22 04:00S 34°43' W 024°41'2 1.9
2017-May-22 03:00S 34°44' W 024°40'1 0.2
2017-May-22 00:00S 34°45' W 024°40'0 0.0
2017-May-21 23:00S 34°45' W 024°40'1 0.8
2017-May-21 22:00S 34°46' W 024°39'0 0.0
2017-May-21 21:00S 34°46' W 024°39'1 0.8
2017-May-21 20:00S 34°46' W 024°40'0 0.5
2017-May-21 19:00S 34°46' W 024°39'1 1.0
2017-May-21 18:00S 34°46' W 024°38'0 0.0
2017-May-21 17:00S 34°46' W 024°38'0 0.0
2017-May-21 16:00S 34°46' W 024°38'3 0.7
2017-May-21 12:00S 34°49' W 024°36'3 3.1
2017-May-21 11:00S 34°51' W 024°34'0 0.0
2017-May-21 08:00S 34°51' W 024°34'0 0.0
2017-May-21 07:00S 34°51' W 024°34'2 0.5
2017-May-21 04:00S 34°52' W 024°32'1 0.2
2017-May-21 00:00S 34°52' W 024°31'1 0.8
2017-May-20 23:00S 34°53' W 024°31'2 2.3
2017-May-20 22:00S 34°55' W 024°29'0 0.0
2017-May-20 21:00S 34°55' W 024°29'1 0.8
2017-May-20 20:00S 34°54' W 024°29'2 1.9
2017-May-20 19:00S 34°55' W 024°28'1 0.8
2017-May-20 18:00S 34°55' W 024°27'1 0.6
2017-May-20 16:00S 34°56' W 024°26'3 0.7
2017-May-20 11:00S 34°58' W 024°23'2 1.6
2017-May-20 10:00S 34°59' W 024°22'2 1.6
2017-May-20 09:00S 34°59' W 024°20'0 0.0
2017-May-20 08:00S 34°59' W 024°20'1 1.3
2017-May-20 07:00S 35°01' W 024°19'6 6.1
2017-May-20 06:00S 35°04' W 024°13'0 0.0
2017-May-20 05:00S 35°04' W 024°13'0 0.0
2017-May-20 04:00S 35°04' W 024°13'0 0.0
2017-May-20 01:00S 35°04' W 024°13'0 0.0
2017-May-20 00:00S 35°04' W 024°13'0 0.0
2017-May-19 23:00S 35°04' W 024°13'2 0.7
2017-May-19 20:00S 35°06' W 024°12'2 2.3
2017-May-19 19:00S 35°07' W 024°10'1 0.6
2017-May-19 18:00S 35°08' W 024°10'7 6.5
2017-May-19 17:00S 35°13' W 024°04'0 0.0
2017-May-19 16:00S 35°13' W 024°04'1 0.2
2017-May-19 12:00S 35°13' W 024°04'0 0.0
2017-May-19 10:00S 35°13' W 024°04'1 1.3
2017-May-19 09:00S 35°14' W 024°03'2 0.9
2017-May-19 07:00S 35°16' W 024°01'2 0.8
2017-May-19 04:00S 35°17' W 023°59'0 0.0
2017-May-19 02:00S 35°17' W 023°59'3 1.5
2017-May-19 00:00S 35°19' W 023°56'1 0.8
2017-May-18 23:00S 35°20' W 023°56'0 0.5
2017-May-18 22:00S 35°20' W 023°55'5 1.7
2017-May-18 19:00S 35°25' W 023°53'0 0.0
2017-May-18 18:00S 35°25' W 023°53'0 0.0
2017-May-18 17:00S 35°25' W 023°53'3 0.5
2017-May-18 10:00S 35°28' W 023°51'1 0.6
2017-May-18 09:00S 35°28' W 023°51'0 0.0
2017-May-18 08:00S 35°28' W 023°51'2 0.5
2017-May-18 04:00S 35°30' W 023°50'0 0.0
2017-May-18 03:00S 35°30' W 023°50'2 1.2
2017-May-18 01:00S 35°32' W 023°49'0 0.0
2017-May-18 00:00S 35°32' W 023°49'0 0.0
2017-May-17 23:00S 35°32' W 023°49'1 1.3
2017-May-17 22:00S 35°34' W 023°49'2 1.8
2017-May-17 21:00S 35°35' W 023°49'0 0.2
2017-May-17 19:00S 35°35' W 023°49'1 1.1
2017-May-17 18:00S 35°36' W 023°48'1 0.8
2017-May-17 17:00S 35°37' W 023°49'3 1.5
2017-May-17 15:00S 35°39' W 023°51'1 0.2
2017-May-17 11:00S 35°40' W 023°50'1 1.2
2017-May-17 10:00S 35°41' W 023°50'0 0.0
2017-May-17 09:00S 35°41' W 023°50'0 0.0
2017-May-17 08:00S 35°41' W 023°50'1 1.3
2017-May-17 07:00S 35°42' W 023°50'0 0.0
2017-May-17 06:00S 35°42' W 023°50'3 2.6
2017-May-17 05:00S 35°44' W 023°51'0 0.0
2017-May-17 04:00S 35°44' W 023°51'0 0.0
2017-May-17 03:00S 35°44' W 023°51'0 0.0
2017-May-17 02:00S 35°44' W 023°51'3 1.3
2017-May-17 00:00S 35°47' W 023°52'1 0.6
2017-May-16 23:00S 35°47' W 023°52'2 2.3
2017-May-16 22:00S 35°49' W 023°54'0 0.0
2017-May-16 21:00S 35°49' W 023°54'1 0.8
2017-May-16 20:00S 35°50' W 023°55'0 0.0
2017-May-16 19:00S 35°50' W 023°55'1 0.8
2017-May-16 18:00S 35°50' W 023°55'2 1.9
2017-May-16 17:00S 35°52' W 023°56'0 0.2
2017-May-16 15:00S 35°52' W 023°55'3 0.9
2017-May-16 12:00S 35°55' W 023°57'1 0.8
2017-May-16 11:00S 35°55' W 023°58'1 0.4
2017-May-16 09:00S 35°56' W 023°58'1 0.6
2017-May-16 07:00S 35°57' W 023°58'3 1.6
2017-May-16 05:00S 36°00' W 023°59'2 0.5
2017-May-16 00:00S 36°02' W 024°00'1 0.8
2017-May-15 23:00S 36°03' W 024°01'2 1.5
2017-May-15 22:00S 36°04' W 024°02'1 1.0
2017-May-15 21:00S 36°04' W 024°03'0 0.2
2017-May-15 19:00S 36°04' W 024°04'2 1.0
2017-May-15 17:00S 36°04' W 024°06'0 0.0
2017-May-15 16:00S 36°04' W 024°06'4 0.8
2017-May-15 11:00S 36°03' W 024°11'1 1.2
2017-May-15 10:00S 36°02' W 024°11'1 1.1
2017-May-15 09:00S 36°02' W 024°12'2 1.0
2017-May-15 07:00S 36°01' W 024°13'2 1.1
2017-May-15 05:00S 35°59' W 024°16'2 0.6
2017-May-15 01:00S 35°58' W 024°18'0 0.0
2017-May-15 00:00S 35°58' W 024°18'  

Dump ship's entire track history